createdAt,value
2022-10-07T00:01:06.429Z,74.55
2022-10-07T00:03:35.156Z,74.48
2022-10-07T00:06:05.694Z,74.76
2022-10-07T00:08:35.855Z,74.21
2022-10-07T00:11:09.328Z,74.69
2022-10-07T00:13:40.704Z,74.37
2022-10-07T00:16:11.168Z,74.69
2022-10-07T00:18:40.633Z,74.55
2022-10-07T00:21:11.352Z,74.61
2022-10-07T00:23:39.901Z,74.65
2022-10-07T00:26:09.249Z,74.72
2022-10-07T00:28:39.131Z,74.93
2022-10-07T00:31:09.362Z,74.83
2022-10-07T00:33:39.991Z,74.94
2022-10-07T00:36:09.355Z,75.16
2022-10-07T00:38:37.259Z,75.34
2022-10-07T00:41:05.557Z,75.16
2022-10-07T00:43:34.077Z,75.46
2022-10-07T00:46:09.243Z,75.48
2022-10-07T00:48:39.264Z,75.40
2022-10-07T00:51:10.133Z,75.41
2022-10-07T00:53:41.982Z,75.87
2022-10-07T00:56:12.073Z,75.85
2022-10-07T00:58:43.657Z,76.24
2022-10-07T01:01:13.332Z,75.88
2022-10-07T01:03:42.242Z,76.44
2022-10-07T01:06:11.202Z,76.55
2022-10-07T01:08:39.386Z,76.44
2022-10-07T01:11:18.785Z,76.21
2022-10-07T01:13:57.343Z,76.50
2022-10-07T01:16:34.627Z,77.06
2022-10-07T01:19:17.275Z,76.72
2022-10-07T01:22:01.297Z,77.05
2022-10-07T01:24:41.349Z,76.90
2022-10-07T01:27:15.445Z,76.87
2022-10-07T01:29:55.894Z,77.15
2022-10-07T01:32:32.245Z,77.10
2022-10-07T01:35:02.803Z,77.43
2022-10-07T01:37:36.240Z,77.44
2022-10-07T01:40:08.671Z,77.83
2022-10-07T01:42:38.948Z,77.41
2022-10-07T01:45:11.407Z,77.79
2022-10-07T01:47:39.367Z,77.67
2022-10-07T01:50:12.928Z,77.89
2022-10-07T01:52:53.125Z,77.89
2022-10-07T01:55:46.651Z,77.90
2022-10-07T01:58:30.180Z,78.17
2022-10-07T02:01:06.376Z,78.24
2022-10-07T02:03:52.529Z,78.20
2022-10-07T02:06:30.054Z,78.47
2022-10-07T02:09:02.139Z,78.28
2022-10-07T02:11:34.120Z,78.25
2022-10-07T02:14:12.012Z,78.41
2022-10-07T02:16:43.334Z,78.39
2022-10-07T02:19:16.358Z,78.26
2022-10-07T02:21:47.176Z,78.29
2022-10-07T02:24:18.161Z,78.58
2022-10-07T02:26:48.346Z,78.59
2022-10-07T02:29:21.649Z,78.39
2022-10-07T02:31:51.046Z,78.58
2022-10-07T02:34:22.445Z,78.44
2022-10-07T02:36:55.904Z,78.18
2022-10-07T02:39:23.858Z,78.01
2022-10-07T02:41:56.595Z,78.38
2022-10-07T02:44:32.326Z,78.16
2022-10-07T02:47:05.173Z,78.45
2022-10-07T02:49:38.640Z,78.33
2022-10-07T02:52:09.765Z,78.46
2022-10-07T02:54:42.905Z,78.51
2022-10-07T02:57:13.924Z,78.56
2022-10-07T02:59:45.451Z,78.54
2022-10-07T03:02:20.746Z,78.50
2022-10-07T03:04:49.448Z,78.31
2022-10-07T03:07:17.576Z,78.54
2022-10-07T03:09:45.783Z,78.53
2022-10-07T03:12:13.733Z,78.81
2022-10-07T03:14:44.955Z,78.99
2022-10-07T03:17:12.948Z,78.68
2022-10-07T03:19:41.409Z,78.80
2022-10-07T03:22:09.549Z,78.44
2022-10-07T03:24:37.772Z,78.19
2022-10-07T03:27:07.413Z,78.44
2022-10-07T03:29:35.699Z,78.41
2022-10-07T03:32:05.206Z,78.30
2022-10-07T03:34:33.342Z,78.88
2022-10-07T03:37:01.263Z,78.92
2022-10-07T03:39:29.192Z,78.92
2022-10-07T03:41:57.325Z,78.78
2022-10-07T03:44:25.389Z,79.08
2022-10-07T03:46:53.912Z,79.44
2022-10-07T03:49:24.091Z,79.37
2022-10-07T03:51:51.921Z,79.26
2022-10-07T03:54:19.971Z,79.66
2022-10-07T03:56:47.985Z,80.32
2022-10-07T03:59:15.817Z,80.01
2022-10-07T04:01:43.917Z,80.21
2022-10-07T04:04:12.059Z,80.15
2022-10-07T04:06:43.479Z,80.40
2022-10-07T04:09:14.232Z,80.44
2022-10-07T04:11:42.274Z,80.51
2022-10-07T04:14:10.168Z,80.30
2022-10-07T04:16:39.005Z,80.40
2022-10-07T04:19:07.265Z,80.63
2022-10-07T04:21:35.359Z,80.48
2022-10-07T04:24:05.034Z,80.62
2022-10-07T04:26:32.889Z,80.70
2022-10-07T04:29:00.982Z,81.03
2022-10-07T04:31:29.252Z,80.88
2022-10-07T04:33:57.171Z,81.13
2022-10-07T04:36:25.729Z,80.86
2022-10-07T04:38:53.993Z,81.29
2022-10-07T04:41:23.166Z,81.30
2022-10-07T04:43:54.243Z,81.31
2022-10-07T04:46:25.706Z,81.59
2022-10-07T04:48:54.654Z,81.59
2022-10-07T04:51:23.212Z,81.56
2022-10-07T04:53:56.747Z,81.74
2022-10-07T04:56:28.347Z,81.70
2022-10-07T04:58:56.824Z,81.98
2022-10-07T05:01:24.906Z,82.04
2022-10-07T05:03:52.927Z,82.60
2022-10-07T05:06:20.945Z,82.61
2022-10-07T05:08:49.945Z,82.58
2022-10-07T05:11:17.832Z,82.85
2022-10-07T05:13:47.315Z,83.09
2022-10-07T05:16:15.216Z,83.41
2022-10-07T05:18:43.071Z,83.10
2022-10-07T05:21:11.338Z,83.37
2022-10-07T05:23:39.333Z,83.71
2022-10-07T05:26:09.212Z,84.01
2022-10-07T05:28:37.971Z,83.73
2022-10-07T05:31:12.992Z,84.27
2022-10-07T05:33:41.801Z,84.07
2022-10-07T05:36:11.477Z,84.34
2022-10-07T05:38:39.351Z,84.63
2022-10-07T05:41:09.441Z,84.87
2022-10-07T05:43:40.521Z,84.65
2022-10-07T05:46:12.636Z,84.57
2022-10-07T05:48:41.172Z,84.70
2022-10-07T05:51:09.595Z,84.97
2022-10-07T05:53:41.291Z,84.84
2022-10-07T05:56:12.220Z,84.90
2022-10-07T05:58:40.122Z,84.23
2022-10-07T06:01:15.476Z,84.54
2022-10-07T06:03:44.021Z,84.39
2022-10-07T06:06:12.146Z,84.49
2022-10-07T06:08:40.259Z,84.30
2022-10-07T06:11:26.396Z,84.29
2022-10-07T06:13:56.017Z,84.21
2022-10-07T06:16:25.605Z,84.29
2022-10-07T06:18:54.835Z,83.62
2022-10-07T06:21:26.774Z,83.15
2022-10-07T06:23:55.996Z,83.16
2022-10-07T06:26:24.653Z,82.84
2022-10-07T06:28:52.753Z,83.08
2022-10-07T06:31:24.766Z,82.71
2022-10-07T06:33:55.246Z,82.74
2022-10-07T06:36:23.574Z,82.50
2022-10-07T06:38:52.789Z,82.67
2022-10-07T06:41:21.350Z,82.78
2022-10-07T06:43:49.522Z,82.65
2022-10-07T06:46:18.926Z,82.54
2022-10-07T06:48:47.602Z,83.05
2022-10-07T06:51:18.369Z,83.05
2022-10-07T06:53:46.620Z,82.53
2022-10-07T06:56:15.753Z,82.25
2022-10-07T06:58:44.037Z,82.16
2022-10-07T07:01:13.215Z,82.32
2022-10-07T07:03:41.866Z,81.76
2022-10-07T07:06:11.067Z,81.66
2022-10-07T07:08:41.357Z,82.02
2022-10-07T07:11:25.864Z,81.63
2022-10-07T07:13:54.323Z,81.45
2022-10-07T07:16:24.277Z,81.36
2022-10-07T07:18:53.819Z,81.15
2022-10-07T07:21:22.390Z,81.08
2022-10-07T07:23:52.133Z,81.34
2022-10-07T07:26:20.418Z,81.33
2022-10-07T07:28:52.562Z,81.25
2022-10-07T07:31:20.824Z,81.13
2022-10-07T07:33:52.828Z,81.21
2022-10-07T07:36:23.472Z,81.10
2022-10-07T07:38:54.835Z,81.01
2022-10-07T07:41:25.822Z,81.11
2022-10-07T07:43:55.546Z,80.67
2022-10-07T07:46:26.417Z,80.65
2022-10-07T07:48:54.929Z,80.84
2022-10-07T07:51:23.385Z,80.96
2022-10-07T07:53:52.809Z,80.90
2022-10-07T07:56:21.673Z,80.93
2022-10-07T07:58:49.632Z,80.77
2022-10-07T08:01:19.734Z,80.89
2022-10-07T08:03:49.352Z,80.81
2022-10-07T08:06:20.581Z,80.98
2022-10-07T08:08:48.798Z,80.77
2022-10-07T08:11:20.278Z,80.89
2022-10-07T08:13:49.000Z,80.93
2022-10-07T08:16:19.429Z,81.08
2022-10-07T08:18:49.365Z,80.80
2022-10-07T08:21:20.185Z,80.66
2022-10-07T08:23:49.081Z,80.63
2022-10-07T08:26:18.546Z,80.51
2022-10-07T08:28:46.547Z,80.63
2022-10-07T08:31:17.216Z,80.70
2022-10-07T08:33:47.205Z,80.32
2022-10-07T08:36:16.899Z,80.68
2022-10-07T08:38:48.491Z,80.83
2022-10-07T08:41:57.069Z,80.92
2022-10-07T08:44:29.085Z,80.80
2022-10-07T08:47:02.969Z,80.98
2022-10-07T08:49:45.238Z,81.16
2022-10-07T08:52:32.714Z,81.09
2022-10-07T08:55:01.707Z,80.96
2022-10-07T08:57:45.468Z,80.97
2022-10-07T09:00:17.869Z,81.13
2022-10-07T09:03:02.095Z,80.82
2022-10-07T09:05:35.375Z,80.88
2022-10-07T09:08:07.597Z,81.07
2022-10-07T09:10:39.495Z,80.75
2022-10-07T09:13:14.591Z,80.73
2022-10-07T09:15:46.564Z,80.61
2022-10-07T09:18:21.354Z,80.76
2022-10-07T09:20:54.313Z,80.67
2022-10-07T09:23:25.224Z,80.76
2022-10-07T09:25:53.293Z,80.51
2022-10-07T09:28:27.246Z,80.68
2022-10-07T09:30:55.647Z,80.49
2022-10-07T09:33:25.153Z,80.36
2022-10-07T09:35:57.598Z,80.39
2022-10-07T09:38:34.095Z,80.19
2022-10-07T09:41:17.702Z,79.67
2022-10-07T09:43:58.353Z,79.07
2022-10-07T09:46:43.213Z,79.16
2022-10-07T09:49:31.580Z,79.27
2022-10-07T09:52:01.395Z,79.38
2022-10-07T09:54:31.013Z,79.37
2022-10-07T09:57:01.747Z,79.39
2022-10-07T09:59:32.742Z,79.31
2022-10-07T10:02:03.978Z,79.38
2022-10-07T10:04:33.905Z,79.33
2022-10-07T10:07:05.798Z,79.53
2022-10-07T10:09:35.418Z,79.42
2022-10-07T10:12:12.835Z,79.44
2022-10-07T10:14:52.745Z,79.49
2022-10-07T10:17:34.674Z,79.51
2022-10-07T10:20:29.264Z,79.48
2022-10-07T10:22:57.773Z,79.54
2022-10-07T10:25:53.676Z,79.75
2022-10-07T10:28:34.130Z,79.76
2022-10-07T10:31:11.680Z,79.82
2022-10-07T10:33:47.127Z,80.13
2022-10-07T10:36:20.687Z,80.41
2022-10-07T10:38:52.676Z,80.71
2022-10-07T10:41:28.622Z,81.09
2022-10-07T10:44:13.572Z,81.15
2022-10-07T10:46:54.905Z,81.73
2022-10-07T10:49:30.831Z,81.79
2022-10-07T10:52:19.275Z,82.04
2022-10-07T10:55:04.319Z,81.99
2022-10-07T10:57:44.405Z,82.06
2022-10-07T11:00:16.024Z,82.14
2022-10-07T11:03:18.854Z,82.55
2022-10-07T11:05:48.397Z,82.48
2022-10-07T11:08:24.163Z,82.59
2022-10-07T11:10:58.604Z,82.70
2022-10-07T11:13:35.463Z,82.96
2022-10-07T11:16:10.957Z,82.86
2022-10-07T11:18:45.956Z,83.03
2022-10-07T11:21:20.098Z,83.21
2022-10-07T11:23:56.057Z,83.37
2022-10-07T11:26:34.458Z,83.51
2022-10-07T11:29:11.602Z,83.37
2022-10-07T11:31:43.609Z,83.45
2022-10-07T11:34:24.464Z,83.39
2022-10-07T11:36:58.773Z,83.48
2022-10-07T11:39:26.920Z,83.46
2022-10-07T11:42:02.970Z,83.54
2022-10-07T11:44:36.599Z,83.50
2022-10-07T11:47:11.275Z,83.55
2022-10-07T11:49:45.167Z,83.36
2022-10-07T11:52:24.390Z,83.00
2022-10-07T11:54:59.608Z,82.73
2022-10-07T11:57:33.020Z,82.36
2022-10-07T12:00:06.205Z,82.32
2022-10-07T12:02:52.500Z,81.90
2022-10-07T12:05:59.090Z,81.79
2022-10-07T12:08:35.750Z,81.46
2022-10-07T12:11:45.613Z,80.83
2022-10-07T12:14:50.093Z,80.90
2022-10-07T12:17:25.282Z,80.07
2022-10-07T12:20:30.212Z,79.61
2022-10-07T12:23:32.360Z,79.42
2022-10-07T12:26:03.292Z,78.96
2022-10-07T12:28:35.719Z,78.62
2022-10-07T12:31:06.376Z,78.66
2022-10-07T12:33:36.104Z,78.50
2022-10-07T12:36:26.500Z,78.46
2022-10-07T12:39:29.902Z,78.05
2022-10-07T12:42:01.245Z,77.70
2022-10-07T12:44:34.093Z,77.89
2022-10-07T12:47:08.582Z,77.75
2022-10-07T12:49:41.091Z,77.58
2022-10-07T12:52:14.526Z,77.33
2022-10-07T12:54:48.787Z,76.80
2022-10-07T12:57:23.440Z,76.51
2022-10-07T13:00:01.997Z,76.52
2022-10-07T13:03:05.018Z,76.02
2022-10-07T13:06:11.557Z,75.77
2022-10-07T13:09:17.529Z,75.57
2022-10-07T13:12:12.541Z,75.42
2022-10-07T13:14:52.050Z,75.38
2022-10-07T13:17:29.383Z,75.26
2022-10-07T13:20:06.203Z,75.51
2022-10-07T13:22:34.510Z,75.09
2022-10-07T13:25:05.077Z,75.32
2022-10-07T13:27:37.334Z,74.95
2022-10-07T13:30:08.494Z,74.99
2022-10-07T13:32:37.346Z,75.16
2022-10-07T13:35:24.573Z,74.74
2022-10-07T13:37:52.732Z,74.86
2022-10-07T13:40:23.274Z,74.27
2022-10-07T13:42:55.308Z,74.34
2022-10-07T13:45:24.967Z,74.00
2022-10-07T13:47:53.143Z,73.78
2022-10-07T13:50:26.180Z,73.55
2022-10-07T13:52:56.030Z,73.36
2022-10-07T13:55:29.280Z,72.46
2022-10-07T13:57:58.437Z,72.65
2022-10-07T14:00:28.518Z,72.82
2022-10-07T14:02:56.608Z,72.83
2022-10-07T14:05:28.641Z,72.46
2022-10-07T14:07:59.087Z,72.35
2022-10-07T14:10:29.228Z,72.30
2022-10-07T14:13:00.289Z,72.39
2022-10-07T14:15:31.536Z,72.41
2022-10-07T14:18:08.123Z,72.34
2022-10-07T14:20:38.835Z,71.83
2022-10-07T14:23:09.834Z,71.62
2022-10-07T14:25:53.179Z,71.53
2022-10-07T14:28:29.105Z,71.05
2022-10-07T14:31:36.136Z,70.88
2022-10-07T14:34:30.908Z,70.92
2022-10-07T14:37:03.617Z,70.27
2022-10-07T14:39:34.950Z,70.72
2022-10-07T14:42:03.526Z,70.58
2022-10-07T14:44:31.862Z,70.36
2022-10-07T14:47:12.521Z,69.35
2022-10-07T14:49:42.151Z,69.32
2022-10-07T14:52:15.201Z,68.91
2022-10-07T14:54:43.511Z,68.59
2022-10-07T14:57:11.633Z,68.53
2022-10-07T14:59:39.686Z,68.62
2022-10-07T15:02:08.913Z,68.69
2022-10-07T15:04:36.981Z,68.82
2022-10-07T15:07:05.106Z,68.94
2022-10-07T15:09:32.908Z,68.94
2022-10-07T15:12:01.146Z,69.22
2022-10-07T15:14:29.250Z,69.46
2022-10-07T15:16:57.549Z,69.38
2022-10-07T15:19:27.341Z,69.68
2022-10-07T15:21:56.402Z,69.62
2022-10-07T15:24:24.761Z,69.93
2022-10-07T15:26:53.118Z,70.04
2022-10-07T15:29:21.906Z,70.22
2022-10-07T15:31:49.780Z,70.49
2022-10-07T15:34:17.799Z,70.77
2022-10-07T15:36:48.165Z,71.29
2022-10-07T15:39:16.106Z,71.80
2022-10-07T15:41:45.501Z,71.73
2022-10-07T15:44:17.040Z,71.80
2022-10-07T15:46:45.950Z,71.88
2022-10-07T15:49:13.871Z,71.81
2022-10-07T15:51:42.791Z,72.22
2022-10-07T15:54:12.230Z,72.70
2022-10-07T15:56:40.836Z,73.41
2022-10-07T15:59:09.554Z,74.79
2022-10-07T16:01:37.647Z,76.81
2022-10-07T16:04:06.395Z,80.68
2022-10-07T16:06:37.009Z,82.04
2022-10-07T16:09:05.506Z,82.85
2022-10-07T16:11:35.372Z,84.37
2022-10-07T16:14:04.171Z,84.79
2022-10-07T16:16:33.350Z,85.16
2022-10-07T16:19:01.907Z,84.81
2022-10-07T16:21:31.687Z,85.16
2022-10-07T16:24:02.447Z,85.02
2022-10-07T16:26:31.234Z,85.70
2022-10-07T16:29:19.961Z,85.90
2022-10-07T16:31:49.427Z,85.80
2022-10-07T16:34:19.103Z,86.50
2022-10-07T16:36:49.047Z,86.72
2022-10-07T16:39:19.092Z,87.18
2022-10-07T16:41:47.971Z,87.82
2022-10-07T16:44:17.367Z,88.79
2022-10-07T16:46:45.404Z,89.62
2022-10-07T16:49:15.450Z,90.19
2022-10-07T16:51:45.022Z,90.49
2022-10-07T16:54:15.895Z,91.17
2022-10-07T16:56:48.193Z,91.38
2022-10-07T16:59:23.230Z,91.26
2022-10-07T17:01:53.277Z,91.58
2022-10-07T17:04:21.559Z,91.95
2022-10-07T17:06:49.525Z,91.83
2022-10-07T17:09:18.678Z,92.03
2022-10-07T17:11:47.657Z,92.11
2022-10-07T17:14:19.065Z,92.58
2022-10-07T17:16:49.295Z,92.24
2022-10-07T17:19:18.578Z,92.42
2022-10-07T17:21:47.829Z,92.26
2022-10-07T17:24:16.414Z,92.13
2022-10-07T17:26:45.081Z,92.38
2022-10-07T17:29:14.878Z,92.48
2022-10-07T17:31:47.256Z,92.36
2022-10-07T17:34:16.851Z,92.18
2022-10-07T17:36:45.185Z,92.16
2022-10-07T17:39:13.490Z,91.80
2022-10-07T17:41:41.321Z,91.63
2022-10-07T17:44:12.138Z,91.67
2022-10-07T17:46:41.762Z,91.39
2022-10-07T17:49:13.258Z,91.23
2022-10-07T17:51:43.277Z,91.02
2022-10-07T17:54:12.670Z,90.74
2022-10-07T17:56:41.214Z,89.99
2022-10-07T17:59:09.278Z,89.90
2022-10-07T18:01:37.774Z,89.67
2022-10-07T18:04:08.024Z,89.85
2022-10-07T18:06:38.962Z,89.36
2022-10-07T18:09:08.203Z,89.20
2022-10-07T18:12:02.160Z,88.87
2022-10-07T18:14:52.600Z,88.46
2022-10-07T18:17:21.629Z,87.91
2022-10-07T18:19:49.716Z,87.87
2022-10-07T18:22:19.363Z,87.64
2022-10-07T18:24:47.284Z,87.48
2022-10-07T18:27:15.719Z,86.93
2022-10-07T18:29:43.701Z,86.82
2022-10-07T18:32:13.020Z,86.24
2022-10-07T18:34:40.998Z,86.26
2022-10-07T18:37:08.904Z,86.20
2022-10-07T18:39:38.728Z,85.79
2022-10-07T18:42:06.787Z,85.58
2022-10-07T18:44:34.786Z,85.49
2022-10-07T18:47:02.765Z,85.12
2022-10-07T18:49:30.717Z,84.95
2022-10-07T18:51:58.527Z,84.49
2022-10-07T18:54:26.725Z,84.70
2022-10-07T18:56:55.965Z,84.40
2022-10-07T18:59:23.786Z,84.14
2022-10-07T19:01:51.968Z,84.33
2022-10-07T19:04:20.572Z,84.32
2022-10-07T19:06:48.997Z,84.09
2022-10-07T19:09:18.540Z,84.14
2022-10-07T19:11:47.253Z,84.14
2022-10-07T19:14:16.047Z,83.76
2022-10-07T19:16:45.703Z,83.84
2022-10-07T19:19:16.942Z,83.72
2022-10-07T19:21:46.568Z,83.68
2022-10-07T19:24:15.375Z,83.18
2022-10-07T19:26:45.208Z,83.36
2022-10-07T19:29:14.525Z,83.19
2022-10-07T19:31:45.487Z,82.86
2022-10-07T19:34:15.606Z,82.98
2022-10-07T19:36:47.058Z,82.64
2022-10-07T19:39:17.428Z,82.66
2022-10-07T19:41:45.467Z,82.78
2022-10-07T19:44:14.449Z,82.69
2022-10-07T19:46:44.435Z,82.31
2022-10-07T19:49:12.558Z,82.18
2022-10-07T19:51:42.244Z,82.39
2022-10-07T19:54:12.323Z,82.11
2022-10-07T19:56:41.736Z,82.38
2022-10-07T19:59:11.698Z,82.53
2022-10-07T20:01:42.189Z,82.64
2022-10-07T20:04:14.158Z,82.69
2022-10-07T20:06:42.785Z,82.86
2022-10-07T20:09:13.108Z,82.85
2022-10-07T20:11:41.229Z,83.20
2022-10-07T20:14:10.132Z,83.03
2022-10-07T20:16:39.411Z,83.36
2022-10-07T20:19:09.664Z,83.61
2022-10-07T20:21:39.489Z,83.67
2022-10-07T20:24:09.996Z,83.86
2022-10-07T20:26:39.616Z,84.08
2022-10-07T20:29:10.445Z,83.91
2022-10-07T20:31:40.803Z,83.80
2022-10-07T20:34:12.534Z,83.89
2022-10-07T20:36:42.430Z,84.20
2022-10-07T20:39:33.616Z,84.36
2022-10-07T20:42:19.537Z,84.18
2022-10-07T20:44:48.814Z,84.21
2022-10-07T20:47:17.035Z,84.53
2022-10-07T20:49:44.940Z,84.38
2022-10-07T20:52:17.401Z,84.71
2022-10-07T20:54:45.423Z,84.70
2022-10-07T20:57:15.891Z,84.71
2022-10-07T20:59:44.866Z,84.62
2022-10-07T21:02:13.629Z,84.63
2022-10-07T21:04:42.639Z,84.95
2022-10-07T21:07:11.061Z,84.90
2022-10-07T21:09:40.435Z,85.03
2022-10-07T21:12:09.872Z,85.28
2022-10-07T21:14:38.637Z,85.46
2022-10-07T21:17:07.824Z,85.58
2022-10-07T21:19:36.143Z,85.70
2022-10-07T21:22:04.282Z,85.93
2022-10-07T21:24:34.504Z,85.62
2022-10-07T21:27:05.049Z,86.20
2022-10-07T21:29:37.458Z,86.19
2022-10-07T21:32:08.305Z,86.05
2022-10-07T21:34:36.587Z,86.19
2022-10-07T21:37:04.676Z,86.66
2022-10-07T21:39:32.600Z,86.52
2022-10-07T21:42:00.646Z,86.54
2022-10-07T21:44:32.332Z,86.19
2022-10-07T21:47:00.314Z,86.19
2022-10-07T21:49:28.491Z,86.14
2022-10-07T21:51:56.426Z,86.30
2022-10-07T21:54:24.292Z,86.24
2022-10-07T21:56:52.523Z,85.89
2022-10-07T21:59:20.882Z,86.04
2022-10-07T22:01:50.182Z,86.10
2022-10-07T22:04:20.088Z,85.99
2022-10-07T22:07:05.355Z,86.11
2022-10-07T22:09:33.548Z,85.83
2022-10-07T22:12:01.578Z,86.10
2022-10-07T22:14:29.449Z,85.97
2022-10-07T22:16:58.831Z,85.82
2022-10-07T22:19:26.757Z,85.78
2022-10-07T22:21:54.618Z,85.95
2022-10-07T22:24:24.193Z,85.50
2022-10-07T22:26:52.340Z,85.93
2022-10-07T22:29:21.939Z,85.51
2022-10-07T22:31:50.197Z,85.79
2022-10-07T22:34:36.769Z,85.46
2022-10-07T22:37:05.341Z,85.79
2022-10-07T22:39:33.224Z,85.54
2022-10-07T22:42:03.009Z,85.55
2022-10-07T22:44:31.734Z,85.58
2022-10-07T22:47:00.403Z,85.96
2022-10-07T22:49:30.530Z,85.99
2022-10-07T22:52:00.040Z,86.23
2022-10-07T22:54:28.592Z,86.16
2022-10-07T22:56:56.621Z,86.48
2022-10-07T22:59:24.707Z,86.19
2022-10-07T23:01:53.029Z,86.69
2022-10-07T23:04:21.486Z,86.67
2022-10-07T23:06:51.220Z,86.81
2022-10-07T23:09:19.197Z,86.70
2022-10-07T23:11:47.126Z,86.89
2022-10-07T23:14:15.235Z,87.29
2022-10-07T23:16:44.299Z,86.84
2022-10-07T23:19:12.391Z,86.70
2022-10-07T23:21:40.638Z,86.72
2022-10-07T23:24:10.222Z,86.79
2022-10-07T23:26:38.917Z,86.85
2022-10-07T23:29:08.334Z,86.92
2022-10-07T23:31:36.337Z,86.75
2022-10-07T23:34:04.988Z,86.87
2022-10-07T23:36:35.026Z,86.97
2022-10-07T23:39:02.913Z,86.72
2022-10-07T23:41:32.763Z,86.66
2022-10-07T23:44:03.050Z,86.62
2022-10-07T23:46:33.179Z,86.69
2022-10-07T23:49:01.247Z,87.13
2022-10-07T23:51:29.970Z,86.86
2022-10-07T23:53:58.508Z,87.07
2022-10-07T23:56:26.673Z,86.94
2022-10-07T23:58:55.986Z,86.90
